Time;durP1;ratioP1;P1;durP2;ratioP2;P2;SDS_P1;SDS_P2;PMS_P1;PMS_P2;Temp;Humidity;BMP_temperature;BMP_pressure;BME280_temperature;BME280_humidity;BME280_pressure;Samples;Min_cycle;Max_cycle;Signal;HPM_P1;HPM_P2
2024/01/27 00:01:24;;;;;;;5.03;2.90;;;15.50;55.30;;;;;;5054245;28;20547;-68
2024/01/27 00:03:50;;;;;;;5.85;2.80;;;15.50;55.30;;;;;;5054990;28;20261;-68
2024/01/27 00:06:15;;;;;;;5.00;2.88;;;15.50;55.30;;;;;;5054976;28;20189;-68
2024/01/27 00:08:42;;;;;;;3.80;2.30;;;15.50;55.30;;;;;;5054157;28;20546;-69
2024/01/27 00:11:07;;;;;;;4.97;2.83;;;15.50;55.30;;;;;;5055172;28;20205;-69
2024/01/27 00:13:33;;;;;;;6.50;3.03;;;15.50;55.30;;;;;;5054568;28;20179;-68
2024/01/27 00:15:58;;;;;;;5.88;2.28;;;15.40;55.30;;;;;;5054301;28;20174;-67
2024/01/27 00:18:24;;;;;;;5.40;2.92;;;15.40;55.20;;;;;;5054442;28;20277;-68
2024/01/27 00:20:49;;;;;;;4.72;2.47;;;15.40;55.10;;;;;;5054673;28;20229;-68
2024/01/27 00:23:15;;;;;;;5.35;2.60;;;15.40;55.20;;;;;;5053928;28;20253;-69
2024/01/27 00:25:40;;;;;;;5.80;3.35;;;15.40;55.30;;;;;;5054384;28;20179;-69
2024/01/27 00:28:06;;;;;;;5.07;2.80;;;15.40;55.20;;;;;;5054617;28;20182;-68
2024/01/27 00:30:31;;;;;;;8.38;3.03;;;15.40;55.20;;;;;;5053564;28;20216;-68
2024/01/27 00:32:57;;;;;;;4.90;2.88;;;15.40;55.20;;;;;;5054487;28;20181;-67
2024/01/27 00:35:23;;;;;;;4.93;2.53;;;15.40;55.20;;;;;;5054348;28;20210;-68
2024/01/27 00:37:48;;;;;;;6.70;2.88;;;15.40;55.20;;;;;;5053709;28;20353;-69
2024/01/27 00:40:14;;;;;;;5.18;2.70;;;15.40;55.20;;;;;;5054584;28;20182;-69
2024/01/27 00:42:40;;;;;;;5.50;2.85;;;15.40;55.20;;;;;;5053992;28;20195;-69
2024/01/27 00:45:06;;;;;;;5.10;3.00;;;15.40;55.20;;;;;;5053682;28;20187;-68
2024/01/27 00:47:31;;;;;;;5.47;3.08;;;15.40;55.20;;;;;;5054085;28;20172;-68
2024/01/27 00:49:57;;;;;;;5.97;2.63;;;15.30;55.10;;;;;;5054282;28;20701;-67
2024/01/27 00:52:23;;;;;;;3.67;2.47;;;15.40;55.20;;;;;;5053057;28;20305;-67
2024/01/27 00:54:48;;;;;;;3.95;2.45;;;15.40;55.20;;;;;;5054078;28;20301;-68
2024/01/27 00:57:14;;;;;;;5.53;2.78;;;15.30;55.20;;;;;;5053580;28;20268;-69
2024/01/27 00:59:40;;;;;;;4.10;2.67;;;15.30;55.10;;;;;;5053805;28;20756;-67
2024/01/27 01:02:06;;;;;;;4.68;2.35;;;15.30;55.10;;;;;;5054026;28;20167;-68
2024/01/27 01:04:31;;;;;;;6.80;2.72;;;15.30;55.10;;;;;;5052773;28;20994;-68
2024/01/27 01:06:57;;;;;;;5.20;2.60;;;15.30;55.10;;;;;;5053832;28;20175;-69
2024/01/27 01:09:22;;;;;;;5.75;2.85;;;15.30;55.20;;;;;;5053445;28;20179;-69
2024/01/27 01:11:48;;;;;;;5.07;2.60;;;15.30;55.20;;;;;;5053351;28;20254;-68
2024/01/27 01:14:14;;;;;;;4.10;2.60;;;15.30;55.10;;;;;;5053910;28;20572;-68
2024/01/27 01:16:40;;;;;;;5.68;2.63;;;15.30;55.10;;;;;;5053368;28;20598;-68
2024/01/27 01:19:05;;;;;;;6.70;2.92;;;15.30;55.20;;;;;;5053095;28;20175;-68
2024/01/27 01:21:31;;;;;;;4.47;2.63;;;15.30;55.20;;;;;;5053241;28;20190;-68
2024/01/27 01:23:56;;;;;;;6.38;3.05;;;15.20;55.10;;;;;;5053426;28;20260;-69
2024/01/27 01:26:22;;;;;;;4.90;2.33;;;15.30;55.20;;;;;;5052772;28;20171;-68
2024/01/27 01:28:47;;;;;;;5.38;2.75;;;15.20;55.10;;;;;;5053594;28;20175;-68
2024/01/27 01:31:13;;;;;;;5.57;2.83;;;15.20;55.10;;;;;;5053487;28;20250;-68
2024/01/27 01:33:38;;;;;;;3.40;2.53;;;15.20;55.10;;;;;;5052399;28;20262;-68
2024/01/27 01:36:07;;;;;;;3.90;2.33;;;15.20;55.10;;;;;;5053306;28;20163;-68
2024/01/27 01:38:33;;;;;;;4.47;2.33;;;15.20;55.10;;;;;;5053095;28;20175;-69
2024/01/27 01:40:58;;;;;;;3.78;2.30;;;15.20;55.10;;;;;;5052697;28;20443;-69
2024/01/27 01:43:24;;;;;;;4.32;2.65;;;15.20;55.10;;;;;;5052843;28;20233;-69
2024/01/27 01:45:50;;;;;;;4.10;2.33;;;15.20;55.00;;;;;;5053245;28;20660;-68
2024/01/27 01:48:16;;;;;;;3.38;2.45;;;15.20;55.10;;;;;;5051059;28;20178;-67
2024/01/27 01:50:41;;;;;;;4.75;2.35;;;15.20;55.00;;;;;;5051702;28;20520;-67
2024/01/27 01:53:07;;;;;;;4.78;2.92;;;15.20;55.00;;;;;;5053258;28;20213;-68
2024/01/27 01:55:33;;;;;;;5.43;2.70;;;15.10;55.00;;;;;;5050678;28;20215;-68
2024/01/27 01:57:59;;;;;;;4.60;2.58;;;15.10;55.00;;;;;;5053063;28;20668;-68
2024/01/27 02:00:24;;;;;;;4.38;2.78;;;15.10;55.00;;;;;;5052528;28;20759;-68
2024/01/27 02:02:50;;;;;;;3.28;2.25;;;15.20;54.90;;;;;;5052078;28;20199;-68
2024/01/27 02:05:15;;;;;;;4.75;2.70;;;15.10;55.00;;;;;;5052805;28;20671;-68
2024/01/27 02:07:41;;;;;;;4.43;2.10;;;15.10;54.90;;;;;;5052148;28;20768;-68
2024/01/27 02:10:12;;;;;;;4.13;2.58;;;15.10;54.90;;;;;;5052883;28;20602;-69
2024/01/27 02:12:38;;;;;;;4.28;2.42;;;15.10;54.90;;;;;;5051365;28;20179;-68
2024/01/27 02:15:04;;;;;;;5.18;2.40;;;15.10;54.90;;;;;;5051978;28;20202;-68
2024/01/27 02:17:29;;;;;;;3.33;2.20;;;15.10;54.90;;;;;;5052316;28;20199;-68
2024/01/27 02:19:55;;;;;;;3.47;2.63;;;15.00;54.80;;;;;;5052282;28;20696;-68
2024/01/27 02:22:20;;;;;;;3.38;2.50;;;15.10;54.90;;;;;;5051138;28;20171;-69
2024/01/27 02:24:46;;;;;;;5.55;2.60;;;15.00;54.80;;;;;;5052495;28;20535;-68
2024/01/27 02:27:12;;;;;;;2.55;1.95;;;15.00;54.70;;;;;;5052381;28;20630;-68
2024/01/27 02:29:38;;;;;;;4.97;2.78;;;15.00;55.40;;;;;;5051288;28;20186;-68
2024/01/27 02:32:04;;;;;;;4.03;2.53;;;15.00;54.80;;;;;;5052330;28;20186;-68
2024/01/27 02:34:29;;;;;;;4.93;2.22;;;15.00;54.70;;;;;;5051895;28;20183;-68
2024/01/27 02:36:55;;;;;;;4.50;2.78;;;15.00;54.80;;;;;;5051758;28;20174;-68
2024/01/27 02:39:21;;;;;;;4.13;2.42;;;15.00;54.90;;;;;;5052149;28;20175;-69
2024/01/27 02:41:47;;;;;;;4.18;2.60;;;15.00;54.80;;;;;;5052277;28;20182;-68
2024/01/27 02:44:12;;;;;;;3.67;2.33;;;15.00;54.80;;;;;;5051389;28;20214;-68
2024/01/27 02:46:38;;;;;;;4.47;2.42;;;15.20;54.90;;;;;;5052394;28;20215;-68
2024/01/27 02:49:03;;;;;;;3.10;2.42;;;15.00;54.80;;;;;;5052074;28;20262;-67
2024/01/27 02:51:29;;;;;;;4.13;2.42;;;15.00;54.80;;;;;;5051256;28;20171;-67
2024/01/27 02:53:54;;;;;;;2.80;2.13;;;15.00;54.80;;;;;;5051996;28;20242;-68
2024/01/27 02:56:20;;;;;;;3.38;2.00;;;15.00;54.80;;;;;;5051804;28;20171;-68
2024/01/27 02:58:45;;;;;;;5.57;2.78;;;14.90;54.60;;;;;;5051456;28;20186;-68
2024/01/27 03:01:11;;;;;;;3.75;2.33;;;14.90;54.60;;;;;;5051857;28;20697;-68
2024/01/27 03:03:36;;;;;;;3.50;2.28;;;14.90;54.70;;;;;;5051565;28;20301;-68
2024/01/27 03:06:02;;;;;;;4.32;2.55;;;14.90;54.60;;;;;;5051511;28;20585;-68
2024/01/27 03:08:27;;;;;;;4.47;2.35;;;14.90;54.60;;;;;;5051706;28;20626;-69
2024/01/27 03:10:53;;;;;;;4.78;2.65;;;14.90;54.80;;;;;;5051368;28;20182;-68
2024/01/27 03:13:19;;;;;;;3.92;2.88;;;14.90;54.70;;;;;;5051438;28;20258;-68
2024/01/27 03:15:44;;;;;;;3.90;2.58;;;14.90;54.80;;;;;;5051919;28;20179;-68
2024/01/27 03:18:10;;;;;;;3.72;2.35;;;14.90;54.60;;;;;;5051038;28;20183;-68
2024/01/27 03:20:35;;;;;;;4.72;2.38;;;14.90;54.60;;;;;;5051677;28;20175;-68
2024/01/27 03:23:01;;;;;;;4.00;2.78;;;14.90;54.60;;;;;;5051880;28;20244;-68
2024/01/27 03:25:26;;;;;;;3.40;2.45;;;14.90;54.80;;;;;;5050932;28;20652;-68
2024/01/27 03:27:52;;;;;;;4.80;2.40;;;14.90;54.80;;;;;;5051734;28;20579;-68
2024/01/27 03:30:18;;;;;;;3.25;2.20;;;14.80;54.60;;;;;;5051470;28;20177;-68
2024/01/27 03:32:43;;;;;;;5.53;2.75;;;14.80;54.70;;;;;;5053345;28;20167;-67
2024/01/27 03:35:09;;;;;;;4.07;2.67;;;14.80;54.60;;;;;;5055914;28;20547;-68
2024/01/27 03:37:34;;;;;;;3.90;2.63;;;14.80;54.60;;;;;;5055502;28;20634;-68
2024/01/27 03:40:00;;;;;;;4.28;2.30;;;14.80;54.40;;;;;;5054913;28;20230;-68
2024/01/27 03:42:26;;;;;;;3.13;2.28;;;14.80;54.40;;;;;;5055115;28;20198;-69
2024/01/27 03:44:52;;;;;;;3.55;2.85;;;14.80;54.60;;;;;;5055487;28;20630;-69
2024/01/27 03:47:17;;;;;;;4.88;2.42;;;14.80;54.60;;;;;;5054455;28;20167;-68
2024/01/27 03:49:43;;;;;;;5.18;2.70;;;14.80;54.60;;;;;;5055633;28;20183;-67
2024/01/27 03:52:09;;;;;;;3.55;2.20;;;14.80;54.70;;;;;;5055563;28;20195;-67
2024/01/27 03:54:34;;;;;;;3.60;2.08;;;14.80;54.70;;;;;;5054131;28;20219;-68
2024/01/27 03:57:00;;;;;;;3.47;2.38;;;14.80;54.70;;;;;;5055383;28;20187;-68
2024/01/27 03:59:25;;;;;;;3.08;2.28;;;14.80;54.70;;;;;;5054898;28;20545;-69
2024/01/27 04:01:51;;;;;;;4.30;2.60;;;14.70;54.70;;;;;;5054470;28;20179;-68
2024/01/27 04:04:16;;;;;;;4.90;2.83;;;14.80;54.70;;;;;;5055055;28;20572;-68
2024/01/27 04:06:42;;;;;;;3.13;2.00;;;14.80;54.60;;;;;;5055228;28;20195;-68
2024/01/27 04:09:08;;;;;;;5.03;2.38;;;14.70;54.60;;;;;;5054498;28;20565;-68
2024/01/27 04:11:34;;;;;;;2.42;1.98;;;14.80;54.70;;;;;;5054750;28;20245;-68
2024/01/27 04:14:00;;;;;;;4.50;2.30;;;14.70;54.70;;;;;;5054889;28;20642;-69
2024/01/27 04:16:25;;;;;;;5.07;2.67;;;14.70;54.70;;;;;;5053898;28;20175;-68
2024/01/27 04:18:51;;;;;;;5.13;2.33;;;14.70;54.60;;;;;;5055072;28;20168;-68
2024/01/27 04:21:16;;;;;;;3.53;2.38;;;14.70;54.70;;;;;;5054080;28;20174;-68
2024/01/27 04:23:42;;;;;;;2.92;2.00;;;14.70;54.70;;;;;;5054812;28;20568;-68
2024/01/27 04:26:09;;;;;;;4.18;2.28;;;14.70;54.70;;;;;;5054743;28;20529;-68
2024/01/27 04:28:34;;;;;;;3.00;2.10;;;14.70;54.60;;;;;;5053806;28;20225;-68
2024/01/27 04:31:00;;;;;;;3.38;2.13;;;14.70;54.70;;;;;;5054553;28;20645;-68
2024/01/27 04:33:25;;;;;;;4.30;2.28;;;14.70;54.60;;;;;;5054536;28;20182;-68
2024/01/27 04:35:51;;;;;;;4.43;2.20;;;14.70;54.60;;;;;;5053991;28;20179;-68
2024/01/27 04:38:17;;;;;;;3.83;2.15;;;14.70;54.60;;;;;;5054069;28;20537;-68
2024/01/27 04:40:45;;;;;;;4.32;2.25;;;14.60;54.60;;;;;;5054443;28;20190;-69
2024/01/27 04:43:15;;;;;;;3.90;2.25;;;14.60;54.50;;;;;;5053184;28;20664;-68
2024/01/27 04:45:41;;;;;;;4.25;2.55;;;14.60;54.60;;;;;;5054139;28;20225;-68
2024/01/27 04:48:07;;;;;;;3.83;2.42;;;14.60;54.70;;;;;;5054299;28;20262;-68
2024/01/27 04:50:32;;;;;;;3.30;2.17;;;14.60;54.50;;;;;;5052071;28;20190;-67
2024/01/27 04:52:58;;;;;;;3.38;2.30;;;14.60;54.60;;;;;;5054221;28;20175;-67
2024/01/27 04:55:23;;;;;;;3.03;2.42;;;14.60;54.50;;;;;;5053770;28;20234;-68
2024/01/27 04:57:51;;;;;;;2.97;2.10;;;14.60;54.60;;;;;;5053455;28;20414;-68
2024/01/27 05:00:17;;;;;;;5.35;2.22;;;14.60;54.60;;;;;;5053750;28;20289;-69
2024/01/27 05:02:42;;;;;;;3.90;2.35;;;14.60;54.60;;;;;;5053930;28;20334;-69
2024/01/27 05:05:08;;;;;;;4.40;2.20;;;14.60;54.60;;;;;;5053429;28;20182;-69
2024/01/27 05:07:34;;;;;;;3.33;2.13;;;14.60;54.60;;;;;;5053757;28;20519;-69
2024/01/27 05:10:00;;;;;;;3.05;2.17;;;14.50;54.60;;;;;;5053816;28;20198;-69
2024/01/27 05:12:25;;;;;;;4.05;2.05;;;14.60;54.60;;;;;;5052949;28;20241;-69
2024/01/27 05:14:51;;;;;;;2.55;2.00;;;14.60;54.60;;;;;;5053730;28;20171;-68
2024/01/27 05:17:16;;;;;;;3.65;2.20;;;14.50;54.60;;;;;;5053440;28;20179;-69
2024/01/27 05:19:42;;;;;;;3.67;2.00;;;14.50;54.60;;;;;;5053023;28;20179;-68
2024/01/27 05:22:07;;;;;;;4.13;2.47;;;14.50;54.60;;;;;;5053799;28;20175;-69
2024/01/27 05:24:33;;;;;;;3.20;2.03;;;14.50;54.60;;;;;;5052567;28;20222;-69
2024/01/27 05:26:59;;;;;;;3.50;2.40;;;14.50;54.60;;;;;;5053618;28;20178;-68
2024/01/27 05:29:25;;;;;;;2.38;1.83;;;14.50;54.60;;;;;;5053033;28;20190;-68
2024/01/27 05:31:51;;;;;;;3.38;2.08;;;14.50;54.60;;;;;;5053002;28;20171;-68
2024/01/27 05:34:17;;;;;;;3.35;2.03;;;14.50;54.60;;;;;;5053296;28;20193;-67
2024/01/27 05:36:42;;;;;;;3.20;2.25;;;14.50;54.70;;;;;;5053542;28;20221;-68
2024/01/27 05:39:08;;;;;;;3.22;1.77;;;14.50;54.60;;;;;;5052784;28;20660;-69
2024/01/27 05:41:34;;;;;;;3.22;2.22;;;14.50;54.60;;;;;;5053104;28;20182;-69
2024/01/27 05:43:59;;;;;;;2.92;2.05;;;14.40;54.60;;;;;;5053321;28;20258;-69
2024/01/27 05:46:25;;;;;;;2.47;2.03;;;14.50;54.70;;;;;;5052401;28;20171;-68
2024/01/27 05:48:53;;;;;;;3.50;2.20;;;14.50;54.80;;;;;;5053250;28;20181;-67
2024/01/27 05:51:25;;;;;;;3.67;2.10;;;14.50;54.80;;;;;;5052899;28;20254;-67
2024/01/27 05:53:50;;;;;;;3.05;1.85;;;14.50;54.60;;;;;;5052110;28;20645;-68
2024/01/27 05:56:19;;;;;;;4.93;2.50;;;14.60;54.50;;;;;;5051892;28;20174;-68
2024/01/27 05:58:44;;;;;;;2.75;1.60;;;14.70;54.40;;;;;;5052897;28;20248;-68
2024/01/27 06:01:25;;;;;;;3.83;2.35;;;14.80;54.30;;;;;;5052419;28;20170;-68
2024/01/27 06:03:51;;;;;;;3.95;2.17;;;14.90;54.30;;;;;;5053057;28;20218;-68
2024/01/27 06:06:16;;;;;;;3.30;2.08;;;15.00;54.30;;;;;;5052596;28;20654;-69
2024/01/27 06:08:42;;;;;;;2.28;1.92;;;15.10;54.40;;;;;;5051985;28;20228;-68
2024/01/27 06:11:07;;;;;;;2.92;1.75;;;15.20;54.20;;;;;;5052646;28;20179;-68
2024/01/27 06:13:34;;;;;;;4.30;2.10;;;15.30;54.20;;;;;;5052318;28;20167;-68
2024/01/27 06:15:59;;;;;;;4.35;1.83;;;15.40;53.90;;;;;;5052164;28;20183;-70
2024/01/27 06:18:25;;;;;;;2.60;2.03;;;15.60;53.80;;;;;;5052199;28;20178;-68
2024/01/27 06:20:51;;;;;;;3.22;2.00;;;15.70;53.60;;;;;;5051809;28;20171;-68
2024/01/27 06:23:16;;;;;;;3.10;1.88;;;15.80;53.50;;;;;;5052301;28;20211;-68
2024/01/27 06:25:43;;;;;;;3.42;2.00;;;15.80;53.40;;;;;;5052306;28;20548;-67
2024/01/27 06:28:08;;;;;;;2.47;1.67;;;15.80;53.20;;;;;;5052018;28;20179;-68
2024/01/27 06:30:34;;;;;;;4.00;2.20;;;15.90;53.20;;;;;;5052232;28;20179;-67
2024/01/27 06:32:59;;;;;;;4.15;2.28;;;15.90;53.10;;;;;;5052528;28;20309;-67
2024/01/27 06:35:25;;;;;;;2.45;2.17;;;16.00;53.10;;;;;;5051586;28;20253;-68
2024/01/27 06:37:50;;;;;;;2.92;1.85;;;15.90;53.10;;;;;;5052435;28;20568;-68
2024/01/27 06:40:16;;;;;;;5.07;2.00;;;16.00;53.10;;;;;;5052124;28;20740;-68
2024/01/27 06:42:41;;;;;;;2.42;1.95;;;16.00;53.10;;;;;;5051589;28;20218;-68
2024/01/27 06:45:07;;;;;;;2.72;1.80;;;16.00;53.00;;;;;;5052237;28;20186;-68
2024/01/27 06:47:33;;;;;;;3.00;2.20;;;16.00;53.00;;;;;;5052047;28;20543;-67
2024/01/27 06:49:58;;;;;;;3.78;2.38;;;16.10;53.00;;;;;;5051428;28;20630;-67
2024/01/27 06:52:24;;;;;;;1.80;1.70;;;16.20;53.00;;;;;;5051640;28;20171;-67
2024/01/27 06:54:49;;;;;;;4.70;2.33;;;16.30;52.90;;;;;;5051815;28;20226;-67
2024/01/27 06:57:22;;;;;;;3.47;1.90;;;16.40;52.80;;;;;;5051207;28;20504;-68
2024/01/27 06:59:55;;;;;;;2.92;2.38;;;16.50;52.70;;;;;;5051981;28;20715;-67
2024/01/27 07:02:39;;;;;;;2.92;1.83;;;16.60;52.40;;;;;;5051681;28;20555;-68
2024/01/27 07:05:05;;;;;;;2.30;1.73;;;16.60;52.30;;;;;;5051398;28;20187;-68
2024/01/27 07:07:31;;;;;;;4.15;1.70;;;16.60;52.30;;;;;;5055318;28;20171;-69
2024/01/27 07:09:57;;;;;;;2.25;1.80;;;16.70;52.30;;;;;;5058042;28;20181;-68
2024/01/27 07:12:22;;;;;;;3.17;1.92;;;16.70;52.30;;;;;;5058198;28;20166;-68
2024/01/27 07:14:48;;;;;;;3.97;2.17;;;16.70;52.20;;;;;;5058420;28;20235;-68
2024/01/27 07:17:13;;;;;;;2.90;1.95;;;16.80;52.30;;;;;;5057962;28;20261;-68
2024/01/27 07:19:39;;;;;;;3.53;1.83;;;16.80;52.20;;;;;;5058209;28;20681;-67
2024/01/27 07:22:05;;;;;;;3.78;2.08;;;16.90;52.10;;;;;;5058369;28;20175;-68
2024/01/27 07:24:30;;;;;;;4.00;2.35;;;16.90;52.10;;;;;;5057566;28;20226;-68
2024/01/27 07:26:58;;;;;;;2.85;1.92;;;16.90;52.00;;;;;;5058378;28;20174;-68
2024/01/27 07:29:23;;;;;;;2.75;1.90;;;16.90;52.00;;;;;;5058128;28;20183;-67
2024/01/27 07:31:49;;;;;;;3.88;2.15;;;17.00;52.00;;;;;;5057610;28;20171;-67
2024/01/27 07:34:15;;;;;;;3.45;2.22;;;17.00;52.00;;;;;;5058381;28;20179;-67
2024/01/27 07:36:40;;;;;;;3.45;2.40;;;16.90;52.00;;;;;;5058128;28;20174;-68
2024/01/27 07:39:06;;;;;;;3.22;1.95;;;17.00;51.90;;;;;;5057383;28;20188;-68
2024/01/27 07:41:31;;;;;;;2.72;2.08;;;17.00;51.90;;;;;;5058113;28;20250;-68
2024/01/27 07:43:57;;;;;;;3.05;2.10;;;17.00;51.90;;;;;;5058429;28;20731;-68
2024/01/27 07:46:22;;;;;;;3.20;2.25;;;17.00;51.90;;;;;;5057275;28;20582;-67
2024/01/27 07:48:48;;;;;;;3.42;2.20;;;16.90;51.90;;;;;;5058312;28;20179;-66
2024/01/27 07:51:15;;;;;;;3.08;1.90;;;17.00;52.00;;;;;;5058185;28;20250;-67
2024/01/27 07:53:41;;;;;;;3.38;1.95;;;17.00;52.10;;;;;;5057366;28;20186;-67
2024/01/27 07:56:07;;;;;;;3.58;2.40;;;17.00;52.00;;;;;;5058393;28;20183;-68
2024/01/27 07:58:33;;;;;;;3.00;2.47;;;17.10;52.00;;;;;;5057918;28;20177;-68
2024/01/27 08:00:59;;;;;;;3.60;2.20;;;17.10;51.90;;;;;;5057534;28;20209;-68
2024/01/27 08:03:24;;;;;;;3.38;2.63;;;17.00;52.00;;;;;;5057650;28;20246;-69
2024/01/27 08:05:50;;;;;;;2.90;2.17;;;17.00;52.00;;;;;;5057951;28;20179;-69
2024/01/27 08:08:15;;;;;;;2.83;2.20;;;17.10;52.00;;;;;;5057188;28;20634;-68
2024/01/27 08:10:41;;;;;;;3.00;2.40;;;17.10;52.00;;;;;;5057955;28;20171;-69
2024/01/27 08:13:07;;;;;;;4.43;2.10;;;17.10;52.00;;;;;;5058015;28;20182;-69
2024/01/27 08:15:33;;;;;;;4.03;2.20;;;17.10;51.90;;;;;;5057060;28;20175;-68
2024/01/27 08:17:58;;;;;;;2.53;2.20;;;17.10;51.90;;;;;;5057063;28;20278;-68
2024/01/27 08:20:24;;;;;;;3.28;2.40;;;17.10;51.90;;;;;;5053370;28;20206;-69
2024/01/27 08:22:51;;;;;;;2.72;2.30;;;17.10;51.90;;;;;;5055003;28;20203;-69
2024/01/27 08:25:19;;;;;;;2.50;2.15;;;17.20;51.90;;;;;;5054604;28;20266;-69
2024/01/27 08:27:45;;;;;;;4.15;2.40;;;17.20;51.90;;;;;;5054125;28;20201;-67
2024/01/27 08:30:11;;;;;;;4.18;2.50;;;17.20;51.90;;;;;;5054757;28;20181;-68
2024/01/27 08:32:36;;;;;;;5.00;2.92;;;17.20;51.80;;;;;;5054257;28;20182;-68
2024/01/27 08:35:02;;;;;;;3.63;2.53;;;17.20;51.90;;;;;;5053831;28;20176;-69
2024/01/27 08:37:27;;;;;;;3.20;2.25;;;17.20;51.90;;;;;;5054109;28;20167;-69
2024/01/27 08:39:53;;;;;;;3.63;2.42;;;17.20;52.50;;;;;;5054650;28;20175;-69
2024/01/27 08:42:18;;;;;;;5.50;2.55;;;17.10;51.90;;;;;;5053587;28;20521;-69
2024/01/27 08:44:44;;;;;;;3.75;2.60;;;17.10;51.90;;;;;;5054209;28;20240;-68
2024/01/27 08:47:10;;;;;;;3.42;2.30;;;17.00;52.00;;;;;;5054342;28;20182;-68
2024/01/27 08:49:35;;;;;;;3.33;2.60;;;16.90;52.10;;;;;;5053189;28;20256;-67
2024/01/27 08:52:01;;;;;;;3.75;2.55;;;16.90;52.20;;;;;;5054394;28;20521;-67
2024/01/27 08:54:26;;;;;;;4.38;3.15;;;16.90;52.30;;;;;;5053063;28;20222;-68
2024/01/27 08:56:52;;;;;;;4.68;2.47;;;16.90;52.30;;;;;;5053493;28;20178;-68
2024/01/27 08:59:17;;;;;;;3.33;2.63;;;16.90;52.30;;;;;;5053912;28;20179;-67
2024/01/27 09:01:43;;;;;;;3.75;2.92;;;16.90;52.30;;;;;;5054136;28;20175;-68
2024/01/27 09:04:09;;;;;;;3.83;2.80;;;17.00;52.30;;;;;;5053153;28;20214;-68
2024/01/27 09:06:34;;;;;;;4.43;2.92;;;17.00;52.20;;;;;;5053922;28;20190;-68
2024/01/27 09:09:00;;;;;;;4.10;2.72;;;17.00;52.20;;;;;;5054124;28;20266;-68
2024/01/27 09:11:29;;;;;;;3.67;2.92;;;17.00;52.30;;;;;;5053058;28;20198;-69
2024/01/27 09:13:55;;;;;;;3.78;2.30;;;17.00;52.30;;;;;;5053823;28;20545;-68
2024/01/27 09:16:21;;;;;;;4.13;2.40;;;16.90;52.30;;;;;;5053387;28;20177;-67
2024/01/27 09:18:46;;;;;;;3.60;2.60;;;17.00;52.30;;;;;;5053047;28;20257;-68
2024/01/27 09:21:14;;;;;;;3.65;2.40;;;17.00;52.40;;;;;;5053653;28;20267;-67
2024/01/27 09:23:40;;;;;;;3.65;2.80;;;17.00;52.40;;;;;;5052725;28;20294;-68
2024/01/27 09:26:05;;;;;;;4.80;2.80;;;16.90;52.40;;;;;;5053738;28;20697;-68
2024/01/27 09:28:31;;;;;;;3.03;2.45;;;16.90;52.50;;;;;;5053326;28;20175;-67
2024/01/27 09:30:56;;;;;;;5.57;2.65;;;16.90;52.50;;;;;;5052666;28;20915;-68
2024/01/27 09:33:23;;;;;;;4.72;2.70;;;16.80;52.60;;;;;;5053209;28;20657;-67
2024/01/27 09:35:49;;;;;;;2.50;2.30;;;16.80;52.80;;;;;;5053573;28;20189;-67
2024/01/27 09:38:14;;;;;;;3.42;2.30;;;16.70;53.00;;;;;;5052714;28;20634;-68
2024/01/27 09:40:40;;;;;;;2.88;2.45;;;16.60;53.10;;;;;;5052978;28;20182;-68
2024/01/27 09:43:06;;;;;;;3.88;2.42;;;16.60;53.20;;;;;;5053268;28;20293;-68
2024/01/27 09:45:32;;;;;;;3.90;2.60;;;16.60;53.30;;;;;;5051095;28;20171;-67
2024/01/27 09:47:59;;;;;;;4.05;2.90;;;16.50;53.40;;;;;;5053081;28;20209;-67
2024/01/27 09:50:24;;;;;;;3.83;2.70;;;16.50;53.60;;;;;;5051874;28;20175;-67
2024/01/27 09:52:50;;;;;;;3.17;2.67;;;16.60;53.60;;;;;;5052565;28;20206;-67
2024/01/27 09:55:16;;;;;;;3.03;2.30;;;16.60;53.50;;;;;;5052782;28;20223;-67
2024/01/27 09:57:41;;;;;;;4.05;2.78;;;16.60;53.60;;;;;;5051850;28;20548;-67
2024/01/27 10:00:09;;;;;;;4.78;2.88;;;16.50;53.60;;;;;;5051034;28;20179;-68
2024/01/27 10:02:37;;;;;;;2.90;2.50;;;16.50;53.70;;;;;;5051297;28;20171;-68
2024/01/27 10:05:04;;;;;;;3.75;2.58;;;16.50;53.70;;;;;;5051863;28;20189;-68
2024/01/27 10:07:29;;;;;;;4.72;2.75;;;16.50;53.70;;;;;;5050726;28;20179;-68
2024/01/27 10:09:55;;;;;;;4.25;2.50;;;16.50;53.80;;;;;;5052760;28;20281;-68
2024/01/27 10:12:21;;;;;;;4.57;2.65;;;16.40;53.70;;;;;;5052371;28;20175;-68
2024/01/27 10:14:48;;;;;;;3.47;2.42;;;16.40;53.80;;;;;;5050808;28;20171;-67
2024/01/27 10:17:25;;;;;;;3.75;2.92;;;16.40;53.80;;;;;;5051659;28;20174;-67
2024/01/27 10:20:03;;;;;;;5.13;3.15;;;16.40;53.80;;;;;;5052156;28;20186;-67
2024/01/27 10:22:41;;;;;;;3.70;2.67;;;16.40;53.80;;;;;;5052373;28;20334;-68
2024/01/27 10:25:08;;;;;;;3.40;2.75;;;16.30;53.80;;;;;;5052422;28;20202;-68
2024/01/27 10:27:33;;;;;;;3.88;2.88;;;16.30;53.90;;;;;;5051738;28;20617;-67
2024/01/27 10:29:59;;;;;;;3.72;3.08;;;16.30;53.90;;;;;;5052599;28;20665;-66
2024/01/27 10:32:24;;;;;;;3.65;2.78;;;16.30;54.00;;;;;;5052266;28;20198;-67
2024/01/27 10:35:02;;;;;;;3.33;2.42;;;16.30;54.00;;;;;;5051772;28;20622;-68
2024/01/27 10:37:28;;;;;;;5.88;2.70;;;16.20;54.00;;;;;;5052120;28;20175;-68
2024/01/27 10:40:07;;;;;;;3.00;2.50;;;16.20;54.00;;;;;;5052366;28;20228;-67
2024/01/27 10:42:33;;;;;;;5.30;2.78;;;16.20;54.00;;;;;;5050866;28;20179;-68
2024/01/27 10:45:02;;;;;;;4.03;2.75;;;16.20;54.10;;;;;;5051183;28;20267;-67
2024/01/27 10:47:29;;;;;;;3.50;2.70;;;16.20;54.10;;;;;;5051982;28;20171;-67
2024/01/27 10:49:59;;;;;;;3.13;2.78;;;16.20;54.60;;;;;;5051535;28;20175;-66
2024/01/27 10:52:29;;;;;;;5.93;2.45;;;16.20;54.00;;;;;;5051726;28;20199;-67
2024/01/27 10:55:06;;;;;;;3.47;2.60;;;16.20;54.10;;;;;;5052038;28;20227;-67
2024/01/27 10:57:33;;;;;;;4.78;2.53;;;16.20;54.10;;;;;;5051882;28;20607;-67
2024/01/27 10:59:58;;;;;;;3.67;2.42;;;16.20;54.20;;;;;;5052122;28;20171;-67
2024/01/27 11:02:24;;;;;;;4.57;3.00;;;16.20;54.20;;;;;;5049746;28;20699;-67
2024/01/27 11:04:51;;;;;;;3.13;2.50;;;16.20;54.20;;;;;;5051800;28;20261;-67
2024/01/27 11:07:18;;;;;;;4.80;2.75;;;16.20;54.30;;;;;;5051995;28;20182;-68
2024/01/27 11:09:44;;;;;;;2.97;2.30;;;16.20;54.30;;;;;;5049970;28;20637;-68
2024/01/27 11:12:09;;;;;;;3.75;2.60;;;16.10;54.20;;;;;;5050809;28;20179;-68
2024/01/27 11:14:35;;;;;;;3.53;2.13;;;16.10;54.20;;;;;;5051763;28;20943;-67
2024/01/27 11:17:00;;;;;;;4.57;2.72;;;16.10;54.90;;;;;;5050067;28;20178;-67
2024/01/27 11:19:26;;;;;;;4.22;2.38;;;16.10;54.30;;;;;;5051530;28;20202;-67
2024/01/27 11:22:04;;;;;;;4.47;2.42;;;16.10;54.20;;;;;;5051910;28;20175;-67
2024/01/27 11:24:30;;;;;;;3.65;2.40;;;16.10;54.20;;;;;;5050857;28;20313;-68
2024/01/27 11:27:03;;;;;;;3.85;3.00;;;16.10;54.20;;;;;;5051890;28;20255;-67
2024/01/27 11:29:29;;;;;;;5.38;2.72;;;16.10;54.30;;;;;;5051522;28;20182;-67
2024/01/27 11:31:55;;;;;;;4.10;2.85;;;16.10;54.20;;;;;;5050984;28;20529;-66
2024/01/27 11:34:21;;;;;;;3.25;2.10;;;16.10;54.30;;;;;;5051646;28;20207;-67
2024/01/27 11:36:47;;;;;;;3.78;2.60;;;16.10;54.20;;;;;;5051883;28;20206;-68
2024/01/27 11:39:31;;;;;;;3.40;2.60;;;16.10;54.30;;;;;;5051061;28;20206;-68
2024/01/27 11:42:12;;;;;;;4.20;2.70;;;16.10;54.20;;;;;;5051620;28;20179;-67
2024/01/27 11:44:38;;;;;;;4.80;2.72;;;16.10;54.10;;;;;;5050450;28;20214;-67
2024/01/27 11:47:04;;;;;;;2.95;2.50;;;16.10;54.20;;;;;;5051775;28;20174;-67
2024/01/27 11:49:29;;;;;;;2.97;2.60;;;16.10;54.20;;;;;;5051484;28;20576;-66
2024/01/27 11:51:55;;;;;;;3.40;2.28;;;16.10;54.10;;;;;;5050868;28;20175;-67
2024/01/27 11:54:20;;;;;;;3.30;2.40;;;16.20;54.10;;;;;;5052625;28;20310;-67
2024/01/27 11:56:46;;;;;;;2.72;2.15;;;16.10;54.00;;;;;;5055326;28;20202;-67
2024/01/27 11:59:12;;;;;;;4.97;2.60;;;16.20;54.10;;;;;;5054560;28;20258;-67
2024/01/27 12:01:37;;;;;;;3.63;2.85;;;16.20;54.00;;;;;;5054860;28;20171;-68
2024/01/27 12:04:06;;;;;;;3.70;2.60;;;16.20;54.00;;;;;;5055001;28;20221;-68
2024/01/27 12:06:32;;;;;;;3.60;2.47;;;16.20;54.00;;;;;;5052777;28;20168;-68
2024/01/27 12:08:58;;;;;;;3.55;2.67;;;16.20;54.10;;;;;;5055166;28;20694;-68
2024/01/27 12:11:24;;;;;;;4.93;2.58;;;16.20;54.10;;;;;;5054546;28;20586;-67
2024/01/27 12:13:50;;;;;;;2.63;2.03;;;16.20;54.20;;;;;;5053134;28;20218;-67
2024/01/27 12:16:16;;;;;;;5.70;2.50;;;16.20;54.10;;;;;;5054875;28;20215;-67
2024/01/27 12:18:41;;;;;;;4.75;2.42;;;16.20;54.10;;;;;;5053720;28;20277;-68
2024/01/27 12:21:07;;;;;;;3.22;2.30;;;16.30;54.10;;;;;;5054347;28;20649;-68
2024/01/27 12:23:32;;;;;;;4.63;2.75;;;16.30;54.00;;;;;;5054525;28;20272;-68
2024/01/27 12:25:58;;;;;;;3.67;2.38;;;16.30;53.90;;;;;;5054871;28;20213;-67
2024/01/27 12:28:23;;;;;;;4.13;2.60;;;16.30;53.90;;;;;;5053804;28;20179;-68
2024/01/27 12:30:53;;;;;;;4.38;2.67;;;16.30;53.90;;;;;;5054950;28;20183;-67
2024/01/27 12:33:22;;;;;;;4.20;2.58;;;16.40;53.90;;;;;;5053442;28;20179;-68
2024/01/27 12:35:48;;;;;;;4.25;2.47;;;16.40;53.90;;;;;;5054059;28;20182;-68
2024/01/27 12:38:14;;;;;;;5.25;2.97;;;16.40;53.80;;;;;;5053495;28;20262;-68
2024/01/27 12:40:40;;;;;;;4.13;2.83;;;16.40;53.80;;;;;;5053522;28;20262;-68
2024/01/27 12:43:06;;;;;;;2.63;2.03;;;16.40;53.90;;;;;;5054258;28;20219;-69